sensor_id;sensor_type;location;lat;lon;timestamp;P1;P4;P2;P0;N10;N4;N25;N1;N05;TS
78684;SPS30;68000;51.504;3.894;2023-12-28T17:36:02;7.38;6.87;5.23;3.02;24.27;24.22;23.94;21.80;16.07;0.87
78684;SPS30;68000;51.504;3.894;2023-12-28T17:38:29;9.12;8.48;6.38;3.56;28.52;28.46;28.10;25.37;18.35;0.90
78684;SPS30;68000;51.504;3.894;2023-12-28T17:43:08;7.68;7.12;5.30;2.86;22.82;22.77;22.45;20.09;14.24;0.92
78684;SPS30;68000;51.504;3.894;2023-12-28T17:45:42;6.37;5.92;4.46;2.50;20.07;20.03;19.78;17.88;12.97;0.89
78684;SPS30;68000;51.504;3.894;2023-12-28T17:49:27;8.26;7.61;5.50;2.70;21.41;21.35;20.99;18.27;12.13;1.09
78684;SPS30;68000;51.504;3.894;2023-12-28T17:51:54;8.15;7.56;5.65;3.09;24.75;24.70;24.37;21.89;15.66;0.94
78684;SPS30;68000;51.504;3.894;2023-12-28T17:56:27;5.78;5.42;4.28;2.71;21.95;21.92;21.72;20.22;15.58;0.89
78684;SPS30;68000;51.504;3.894;2023-12-28T17:58:54;7.16;6.69;5.16;3.10;24.95;24.91;24.65;22.65;17.02;0.89
78684;SPS30;68000;51.504;3.894;2023-12-28T18:01:20;7.58;7.07;5.40;3.15;25.33;25.28;25.00;22.82;16.91;0.90
78684;SPS30;68000;51.504;3.894;2023-12-28T18:05:54;7.58;7.10;5.56;3.46;27.94;27.90;27.63;25.61;19.57;0.78
78684;SPS30;68000;51.504;3.894;2023-12-28T18:08:20;6.50;6.08;4.72;2.88;23.25;23.21;22.98;21.20;16.05;0.82
78684;SPS30;68000;51.504;3.894;2023-12-28T18:10:47;6.64;6.20;4.77;2.85;22.92;22.87;22.63;20.77;15.55;0.84
78684;SPS30;68000;51.504;3.894;2023-12-28T18:13:14;6.79;6.33;4.83;2.81;22.63;22.59;22.33;20.38;15.09;0.86
78684;SPS30;68000;51.504;3.894;2023-12-28T18:15:40;7.15;6.65;5.03;2.84;22.81;22.76;22.49;20.38;14.85;0.89
78684;SPS30;68000;51.504;3.894;2023-12-28T18:18:07;7.24;6.72;5.03;2.77;22.14;22.09;21.80;19.61;14.06;0.91
78684;SPS30;68000;51.504;3.894;2023-12-28T18:20:33;6.34;5.89;4.42;2.46;19.71;19.67;19.42;17.52;12.65;0.90
78684;SPS30;68000;51.504;3.894;2023-12-28T18:23:00;6.84;6.35;4.77;2.64;21.11;21.06;20.79;18.73;13.48;0.92
78684;SPS30;68000;51.504;3.894;2023-12-28T18:25:26;6.67;6.20;4.67;2.62;20.98;20.93;20.67;18.69;13.55;0.91
78684;SPS30;68000;51.504;3.894;2023-12-28T18:27:53;6.66;6.19;4.66;2.61;20.95;20.91;20.65;18.67;13.54;0.90
78684;SPS30;68000;51.504;3.894;2023-12-28T18:30:19;7.97;7.40;5.56;3.08;24.68;24.63;24.31;21.92;15.79;0.90
78684;SPS30;68000;51.504;3.894;2023-12-28T18:32:46;7.01;6.52;4.89;2.71;21.71;21.66;21.38;19.27;13.89;0.91
78684;SPS30;68000;51.504;3.894;2023-12-28T18:35:12;7.20;6.69;5.02;2.79;22.34;22.29;22.00;19.84;14.31;0.90
78684;SPS30;68000;51.504;3.894;2023-12-28T18:37:39;8.37;7.73;5.66;2.91;23.11;23.05;22.70;20.03;13.74;0.94
78684;SPS30;68000;51.504;3.894;2023-12-28T18:40:07;7.69;7.11;5.20;2.67;21.20;21.14;20.81;18.36;12.58;0.94
78684;SPS30;68000;51.504;3.894;2023-12-28T18:42:34;7.10;6.57;4.82;2.50;19.93;19.88;19.58;17.33;11.98;0.92
78684;SPS30;68000;51.504;3.894;2023-12-28T18:45:00;7.69;7.11;5.22;2.70;21.49;21.43;21.11;18.67;12.88;0.94
78684;SPS30;68000;51.504;3.894;2023-12-28T18:47:27;8.17;7.56;5.58;2.94;23.46;23.41;23.07;20.51;14.32;0.93
78684;SPS30;68000;51.504;3.894;2023-12-28T18:49:53;6.64;6.16;4.59;2.49;19.88;19.83;19.56;17.53;12.47;0.91
78684;SPS30;68000;51.504;3.894;2023-12-28T18:52:19;6.60;6.12;4.56;2.46;19.65;19.60;19.34;17.31;12.27;0.91
78684;SPS30;68000;51.504;3.894;2023-12-28T18:54:46;7.23;6.71;5.00;2.71;21.65;21.60;21.31;19.10;13.58;0.91
78684;SPS30;68000;51.504;3.894;2023-12-28T18:57:13;6.79;6.29;4.66;2.49;19.87;19.82;19.54;17.44;12.28;0.92
78684;SPS30;68000;51.504;3.894;2023-12-28T18:59:39;6.49;6.04;4.57;2.59;20.79;20.74;20.49;18.58;13.56;0.89
78684;SPS30;68000;51.504;3.894;2023-12-28T19:02:05;6.32;5.89;4.48;2.58;20.73;20.69;20.45;18.62;13.70;0.88
78684;SPS30;68000;51.504;3.894;2023-12-28T19:04:32;6.97;6.47;4.83;2.64;21.14;21.09;20.81;18.69;13.36;0.92
78684;SPS30;68000;51.504;3.894;2023-12-28T19:06:59;6.71;6.23;4.67;2.58;20.62;20.57;20.31;18.28;13.14;0.91
78684;SPS30;68000;51.504;3.894;2023-12-28T19:09:25;6.60;6.13;4.59;2.53;20.23;20.18;19.92;17.93;12.87;0.91
78684;SPS30;68000;51.504;3.894;2023-12-28T19:11:52;7.34;6.81;5.09;2.79;22.32;22.27;21.98;19.75;14.14;0.91
78684;SPS30;68000;51.504;3.894;2023-12-28T19:14:18;7.12;6.60;4.92;2.67;21.37;21.32;21.03;18.86;13.42;0.92
78684;SPS30;68000;51.504;3.894;2023-12-28T19:16:45;7.40;6.86;5.11;2.76;22.08;22.03;21.73;19.46;13.82;0.92
78684;SPS30;68000;51.504;3.894;2023-12-28T19:19:12;6.90;6.42;4.87;2.79;22.36;22.32;22.05;20.04;14.69;0.88
78684;SPS30;68000;51.504;3.894;2023-12-28T19:21:39;6.83;6.37;4.89;2.89;23.26;23.21;22.96;21.03;15.68;0.85
78684;SPS30;68000;51.504;3.894;2023-12-28T19:24:05;7.15;6.66;5.08;2.95;23.73;23.69;23.42;21.36;15.79;0.88
78684;SPS30;68000;51.504;3.894;2023-12-28T19:26:32;7.30;6.79;5.11;2.86;22.93;22.88;22.59;20.42;14.79;0.90
78684;SPS30;68000;51.504;3.894;2023-12-28T19:31:15;7.78;7.21;5.34;2.85;22.78;22.73;22.41;19.99;14.08;0.94
78684;SPS30;68000;51.504;3.894;2023-12-28T19:33:42;7.69;7.13;5.27;2.80;22.32;22.26;21.95;19.55;13.71;0.93
78684;SPS30;68000;51.504;3.894;2023-12-28T19:39:55;7.32;6.81;5.13;2.89;23.18;23.13;22.85;20.68;15.03;0.80
78684;SPS30;68000;51.504;3.894;2023-12-28T19:42:22;7.41;6.90;5.23;2.99;23.97;23.92;23.63;21.47;15.72;0.85
78684;SPS30;68000;51.504;3.894;2023-12-28T19:44:48;6.81;6.35;4.85;2.83;22.73;22.68;22.42;20.47;15.15;0.86
78684;SPS30;68000;51.504;3.894;2023-12-28T19:47:15;7.25;6.74;5.10;2.89;23.16;23.11;22.83;20.69;15.09;0.88
78684;SPS30;68000;51.504;3.894;2023-12-28T19:49:42;6.46;6.01;4.54;2.56;20.55;20.51;20.26;18.35;13.36;0.88
78684;SPS30;68000;51.504;3.894;2023-12-28T19:52:08;6.72;6.27;4.80;2.81;22.62;22.58;22.32;20.41;15.15;0.86
78684;SPS30;68000;51.504;3.894;2023-12-28T19:54:34;7.39;6.89;5.24;3.03;24.36;24.32;24.03;21.90;16.15;0.87
78684;SPS30;68000;51.504;3.894;2023-12-28T19:57:01;7.31;6.81;5.17;2.96;23.77;23.73;23.44;21.31;15.64;0.88
78684;SPS30;68000;51.504;3.894;2023-12-28T19:59:27;7.70;7.15;5.36;2.97;23.79;23.74;23.43;21.11;15.20;0.91
78684;SPS30;68000;51.504;3.894;2023-12-28T20:01:54;8.00;7.43;5.55;3.05;24.36;24.31;23.99;21.56;15.44;0.92
78684;SPS30;68000;51.504;3.894;2023-12-28T20:04:22;7.18;6.68;5.05;2.85;22.87;22.82;22.54;20.42;14.87;0.90
78684;SPS30;68000;51.504;3.894;2023-12-28T20:09:18;6.78;6.31;4.79;2.74;21.97;21.93;21.67;19.69;14.43;0.86
78684;SPS30;68000;51.504;3.894;2023-12-28T20:11:45;6.55;6.15;4.85;3.09;24.98;24.94;24.71;23.01;17.75;0.80
78684;SPS30;68000;51.504;3.894;2023-12-28T20:15:27;6.61;6.20;4.86;3.03;24.49;24.45;24.22;22.46;17.19;0.83
78684;SPS30;68000;51.504;3.894;2023-12-28T20:18:10;6.52;6.11;4.77;2.95;23.84;23.80;23.57;21.82;16.63;0.89
78684;SPS30;68000;51.504;3.894;2023-12-28T20:20:37;6.78;6.32;4.85;2.85;22.95;22.90;22.65;20.73;15.43;0.89
78684;SPS30;68000;51.504;3.894;2023-12-28T20:23:03;6.36;5.93;4.56;2.71;21.84;21.80;21.57;19.78;14.79;0.87
78684;SPS30;68000;51.504;3.894;2023-12-28T20:25:30;6.57;6.12;4.67;2.70;21.73;21.69;21.44;19.55;14.43;0.89
78684;SPS30;68000;51.504;3.894;2023-12-28T20:27:59;6.71;6.23;4.67;2.58;20.69;20.65;20.38;18.36;13.21;0.91
78684;SPS30;68000;51.504;3.894;2023-12-28T20:32:30;8.64;7.96;5.73;2.77;21.93;21.86;21.48;18.61;12.21;0.92
78684;SPS30;68000;51.504;3.894;2023-12-28T20:34:57;7.05;6.53;4.83;2.56;20.44;20.39;20.10;17.90;12.55;0.90
78684;SPS30;68000;51.504;3.894;2023-12-28T20:37:23;7.04;6.53;4.89;2.69;21.50;21.45;21.17;19.04;13.65;0.89
78684;SPS30;68000;51.504;3.894;2023-12-28T20:40:43;6.00;5.62;4.38;2.70;21.82;21.78;21.57;19.95;15.19;0.85
78684;SPS30;68000;51.504;3.894;2023-12-28T20:43:48;7.03;6.52;4.82;2.57;20.48;20.43;20.14;17.95;12.61;0.91
78684;SPS30;68000;51.504;3.894;2023-12-28T20:46:45;7.33;6.77;4.96;2.55;20.28;20.22;19.91;17.58;12.07;0.97
78684;SPS30;68000;51.504;3.894;2023-12-28T20:49:11;7.49;6.92;5.07;2.61;20.73;20.68;20.36;17.98;12.35;0.95
78684;SPS30;68000;51.504;3.894;2023-12-28T20:51:38;7.56;7.01;5.22;2.82;22.50;22.45;22.14;19.82;14.05;0.92
78684;SPS30;68000;51.504;3.894;2023-12-28T20:54:05;6.85;6.35;4.72;2.55;20.34;20.30;20.02;17.91;12.70;0.90
78684;SPS30;68000;51.504;3.894;2023-12-28T20:56:32;7.14;6.63;4.96;2.73;21.83;21.78;21.49;19.33;13.86;0.88
78684;SPS30;68000;51.504;3.894;2023-12-28T20:58:58;6.47;6.03;4.57;2.61;20.99;20.95;20.70;18.81;13.79;0.86
78684;SPS30;68000;51.504;3.894;2023-12-28T21:01:24;6.26;5.84;4.44;2.57;20.65;20.61;20.37;18.56;13.69;0.85
78684;SPS30;68000;51.504;3.894;2023-12-28T21:03:52;6.45;6.00;4.53;2.57;20.61;20.57;20.32;18.42;13.44;0.88
78684;SPS30;68000;51.504;3.894;2023-12-28T21:06:18;6.49;6.04;4.57;2.59;20.77;20.73;20.47;18.56;13.54;0.88
78684;SPS30;68000;51.504;3.894;2023-12-28T21:08:45;6.07;5.65;4.28;2.44;19.58;19.54;19.30;17.52;12.82;0.88
78684;SPS30;68000;51.504;3.894;2023-12-28T21:11:11;6.54;6.08;4.58;2.56;20.55;20.51;20.25;18.30;13.27;0.88
78684;SPS30;68000;51.504;3.894;2023-12-28T21:13:39;6.96;6.47;4.85;2.68;21.50;21.45;21.17;19.08;13.73;0.88
78684;SPS30;68000;51.504;3.894;2023-12-28T21:16:08;7.04;6.53;4.86;2.64;21.06;21.01;20.73;18.57;13.20;0.92
78684;SPS30;68000;51.504;3.894;2023-12-28T21:18:35;7.22;6.69;4.96;2.64;21.08;21.03;20.73;18.49;13.01;0.92
78684;SPS30;68000;51.504;3.894;2023-12-28T21:23:17;6.31;5.89;4.53;2.70;21.75;21.71;21.48;19.71;14.76;0.96
78684;SPS30;68000;51.504;3.894;2023-12-28T21:25:44;5.70;5.31;4.05;2.36;18.96;18.92;18.70;17.06;12.62;0.94
78684;SPS30;68000;51.504;3.894;2023-12-28T21:28:10;6.33;5.89;4.46;2.53;20.33;20.29;20.04;18.18;13.28;0.94
78684;SPS30;68000;51.504;3.894;2023-12-28T21:30:37;6.72;6.24;4.69;2.61;20.93;20.88;20.61;18.60;13.44;0.93
78684;SPS30;68000;51.504;3.894;2023-12-28T21:33:07;6.36;5.91;4.43;2.45;19.61;19.57;19.31;17.40;12.52;0.91
78684;SPS30;68000;51.504;3.894;2023-12-28T21:35:34;6.58;6.08;4.47;2.33;18.54;18.49;18.22;16.14;11.18;0.94
78684;SPS30;68000;51.504;3.894;2023-12-28T21:38:01;6.70;6.21;4.60;2.46;19.64;19.59;19.31;17.24;12.15;0.92
78684;SPS30;68000;51.504;3.894;2023-12-28T21:40:28;6.60;6.13;4.60;2.55;20.43;20.38;20.12;18.14;13.07;0.90
78684;SPS30;68000;51.504;3.894;2023-12-28T21:43:06;7.15;6.61;4.84;2.49;19.79;19.73;19.43;17.15;11.77;0.97
78684;SPS30;68000;51.504;3.894;2023-12-28T21:48:09;8.39;7.71;5.47;2.51;19.77;19.70;19.32;16.45;10.31;1.11
78684;SPS30;68000;51.504;3.894;2023-12-28T21:50:36;7.67;7.08;5.12;2.53;20.05;20.00;19.66;17.15;11.43;1.02
78684;SPS30;68000;51.504;3.894;2023-12-28T21:53:03;7.98;7.36;5.33;2.64;20.91;20.85;20.51;17.89;11.95;0.99
78684;SPS30;68000;51.504;3.894;2023-12-28T21:55:29;7.12;6.57;4.78;2.41;19.10;19.05;18.74;16.44;11.12;0.96
78684;SPS30;68000;51.504;3.894;2023-12-28T21:57:56;7.34;6.78;4.96;2.54;20.17;20.12;19.81;17.46;11.94;0.96
78684;SPS30;68000;51.504;3.894;2023-12-28T22:00:22;7.43;6.87;5.04;2.60;20.67;20.62;20.30;17.94;12.34;0.96
78684;SPS30;68000;51.504;3.894;2023-12-28T22:02:48;7.38;6.83;5.02;2.60;20.71;20.66;20.35;18.01;12.44;0.95
78684;SPS30;68000;51.504;3.894;2023-12-28T22:05:16;6.83;6.33;4.67;2.47;19.68;19.63;19.35;17.21;12.03;0.92
78684;SPS30;68000;51.504;3.894;2023-12-28T22:07:43;6.10;5.65;4.20;2.26;18.06;18.02;17.77;15.89;11.25;0.90
78684;SPS30;68000;51.504;3.894;2023-12-28T22:10:09;6.06;5.62;4.21;2.32;18.58;18.54;18.30;16.47;11.83;0.90
78684;SPS30;68000;51.504;3.894;2023-12-28T22:12:36;5.93;5.52;4.16;2.33;18.71;18.67;18.44;16.68;12.10;0.89
78684;SPS30;68000;51.504;3.894;2023-12-28T22:15:02;6.51;6.05;4.54;2.53;20.26;20.22;19.96;18.01;13.01;0.89
78684;SPS30;68000;51.504;3.894;2023-12-28T22:17:31;6.54;6.07;4.54;2.49;19.93;19.89;19.63;17.65;12.64;0.89
78684;SPS30;68000;51.504;3.894;2023-12-28T22:19:57;6.73;6.25;4.69;2.61;20.90;20.85;20.59;18.57;13.40;0.88
78684;SPS30;68000;51.504;3.894;2023-12-28T22:22:24;6.93;6.43;4.81;2.63;21.08;21.03;20.75;18.65;13.35;0.89
78684;SPS30;68000;51.504;3.894;2023-12-28T22:24:50;5.85;5.44;4.08;2.26;18.11;18.07;17.83;16.07;11.58;0.89
78684;SPS30;68000;51.504;3.894;2023-12-28T22:27:16;6.62;6.14;4.59;2.52;20.19;20.15;19.88;17.88;12.81;0.90
78684;SPS30;68000;51.504;3.894;2023-12-28T22:29:43;6.22;5.77;4.32;2.37;18.97;18.93;18.68;16.80;12.04;0.91
78684;SPS30;68000;51.504;3.894;2023-12-28T22:32:09;6.34;5.88;4.38;2.37;18.90;18.85;18.60;16.65;11.81;0.93
78684;SPS30;68000;51.504;3.894;2023-12-28T22:34:36;7.41;6.86;5.07;2.68;21.40;21.34;21.04;18.72;13.11;0.93
78684;SPS30;68000;51.504;3.894;2023-12-28T22:37:02;6.87;6.36;4.70;2.48;19.79;19.74;19.46;17.31;12.11;0.92
78684;SPS30;68000;51.504;3.894;2023-12-28T22:39:29;6.40;5.92;4.37;2.29;18.29;18.24;17.98;15.97;11.13;0.94
78684;SPS30;68000;51.504;3.894;2023-12-28T22:41:56;6.20;5.74;4.23;2.21;17.60;17.56;17.30;15.35;10.66;0.95
78684;SPS30;68000;51.504;3.894;2023-12-28T22:44:23;7.09;6.56;4.86;2.59;20.64;20.59;20.30;18.09;12.72;0.92
78684;SPS30;68000;51.504;3.894;2023-12-28T22:46:50;6.75;6.28;4.72;2.63;21.05;21.00;20.73;18.71;13.52;0.89
78684;SPS30;68000;51.504;3.894;2023-12-28T22:49:16;6.22;5.79;4.36;2.46;19.70;19.66;19.41;17.57;12.77;0.88
78684;SPS30;68000;51.504;3.894;2023-12-28T22:51:43;6.99;6.50;4.89;2.73;21.89;21.84;21.57;19.48;14.10;0.88
78684;SPS30;68000;51.504;3.894;2023-12-28T22:54:10;6.49;6.04;4.54;2.54;20.39;20.34;20.09;18.15;13.15;0.87
78684;SPS30;68000;51.504;3.894;2023-12-28T22:56:36;6.21;5.77;4.35;2.44;19.59;19.55;19.31;17.46;12.67;0.87
78684;SPS30;68000;51.504;3.894;2023-12-28T22:59:03;7.09;6.59;4.95;2.76;22.14;22.09;21.81;19.70;14.24;0.88
78684;SPS30;68000;51.504;3.894;2023-12-28T23:01:29;7.20;6.68;4.97;2.70;21.54;21.49;21.20;18.99;13.50;0.90
78684;SPS30;68000;51.504;3.894;2023-12-28T23:03:56;7.19;6.66;4.94;2.65;21.13;21.08;20.79;18.56;13.09;0.90
78684;SPS30;68000;51.504;3.894;2023-12-28T23:06:23;7.20;6.68;4.98;2.72;21.74;21.69;21.40;19.20;13.70;0.90
78684;SPS30;68000;51.504;3.894;2023-12-28T23:08:50;6.96;6.45;4.80;2.59;20.65;20.60;20.32;18.18;12.88;0.92
78684;SPS30;68000;51.504;3.894;2023-12-28T23:11:16;7.48;6.92;5.09;2.65;21.07;21.02;20.70;18.34;12.69;0.95
78684;SPS30;68000;51.504;3.894;2023-12-28T23:13:43;6.76;6.26;4.64;2.47;19.75;19.70;19.43;17.33;12.20;0.92
78684;SPS30;68000;51.504;3.894;2023-12-28T23:16:09;6.92;6.42;4.79;2.62;20.95;20.90;20.63;18.52;13.23;0.90
78684;SPS30;68000;51.504;3.894;2023-12-28T23:18:36;7.08;6.56;4.88;2.63;21.03;20.98;20.69;18.52;13.12;0.93
78684;SPS30;68000;51.504;3.894;2023-12-28T23:21:02;6.99;6.49;4.85;2.67;21.33;21.28;21.00;18.88;13.53;0.91
78684;SPS30;68000;51.504;3.894;2023-12-28T23:23:29;6.54;6.07;4.54;2.48;19.85;19.81;19.54;17.56;12.55;0.92
78684;SPS30;68000;51.504;3.894;2023-12-28T23:25:58;6.38;5.93;4.46;2.50;20.04;19.99;19.74;17.84;12.93;0.90
78684;SPS30;68000;51.504;3.894;2023-12-28T23:28:24;6.98;6.49;4.91;2.79;22.37;22.33;22.05;20.00;14.60;0.88
78684;SPS30;68000;51.504;3.894;2023-12-28T23:30:51;7.47;6.93;5.18;2.85;22.77;22.71;22.41;20.15;14.44;0.89
78684;SPS30;68000;51.504;3.894;2023-12-28T23:33:18;7.34;6.81;5.11;2.84;22.70;22.65;22.36;20.16;14.53;0.89
78684;SPS30;68000;51.504;3.894;2023-12-28T23:36:10;5.61;5.29;4.22;2.75;22.32;22.29;22.10;20.69;16.14;0.86
78684;SPS30;68000;51.504;3.894;2023-12-28T23:38:38;5.63;5.28;4.11;2.52;20.37;20.33;20.13;18.61;14.14;0.85
78684;SPS30;68000;51.504;3.894;2023-12-28T23:41:04;6.36;5.94;4.58;2.74;22.04;22.00;21.77;19.99;14.99;0.86
78684;SPS30;68000;51.504;3.894;2023-12-28T23:43:31;6.77;6.30;4.79;2.74;22.02;21.98;21.72;19.74;14.49;0.87
78684;SPS30;68000;51.504;3.894;2023-12-28T23:45:57;6.47;6.02;4.57;2.62;21.00;20.96;20.71;18.82;13.81;0.87
78684;SPS30;68000;51.504;3.894;2023-12-28T23:48:24;6.39;5.95;4.54;2.63;21.16;21.12;20.88;19.04;14.06;0.86
78684;SPS30;68000;51.504;3.894;2023-12-28T23:50:50;5.46;5.11;3.95;2.38;19.22;19.18;18.99;17.48;13.17;0.84
78684;SPS30;68000;51.504;3.894;2023-12-28T23:53:16;6.31;5.88;4.50;2.63;21.19;21.15;20.91;19.11;14.19;0.86
78684;SPS30;68000;51.504;3.894;2023-12-28T23:55:43;6.62;6.18;4.74;2.80;22.53;22.49;22.24;20.37;15.18;0.84
78684;SPS30;68000;51.504;3.894;2023-12-28T23:58:09;5.89;5.51;4.26;2.58;20.78;20.75;20.53;18.91;14.26;0.84
